Forty Four, Arkansas
Current Conditions -  °F | °C
As of 3:53 AM on Saturday 22 Nov 2014 (Local Time) from KBPK Reporting Station
Haze Haze  
Wind Chill: 39°   Ceiling: 4000
Heat Index: 43°   Visibility: 5mi
Dew Point: 42°   Wind: 7mph
Humidity: 97%   Direction: 140°SE
Pressure: 30.16"   Gusts: NA
Location:  36.2138°N, 92.0067°W
Report Text: KBPK 220953Z AUTO 14006KT 5SM BR OVC040 06/06 A3016 RMK AO2 SLP216 T00610056
Loading
Personal Weather Stations






























Interactive Weather Map New forecast layout! Learn more

10-Day Weather Forecast

Advertisements
Track Severe Weather on mobile